Time;durP1;ratioP1;P1;durP2;ratioP2;P2;SDS_P1;SDS_P2;PMS_P1;PMS_P2;Temp;Humidity;BMP_temperature;BMP_pressure;BME280_temperature;BME280_humidity;BME280_pressure;Samples;Min_cycle;Max_cycle;Signal;HPM_P1;HPM_P2
2021/05/17 00:00:01;;;;;;;2.33;1.60;;;12.00;99.90;;;;;;5044685;28;20323;-49
2021/05/17 00:02:28;;;;;;;3.03;1.77;;;12.00;99.90;;;;;;5041891;28;20197;-49
2021/05/17 00:04:55;;;;;;;4.47;1.47;;;11.90;99.90;;;;;;5045220;28;20200;-49
2021/05/17 00:07:22;;;;;;;1.60;1.50;;;11.90;99.90;;;;;;5045362;28;20272;-49
2021/05/17 00:09:48;;;;;;;2.17;1.57;;;12.00;99.90;;;;;;5046866;28;20675;-50
2021/05/17 00:12:16;;;;;;;2.33;1.70;;;12.00;99.90;;;;;;5042743;28;20279;-49
2021/05/17 00:14:43;;;;;;;2.53;1.50;;;12.00;99.90;;;;;;5040272;28;20306;-49
2021/05/17 00:17:10;;;;;;;2.37;1.23;;;12.00;99.90;;;;;;5039925;28;20286;-49
2021/05/17 00:19:37;;;;;;;3.80;1.90;;;12.10;99.90;;;;;;5044209;28;20299;-49
2021/05/17 00:22:05;;;;;;;1.40;1.30;;;12.00;99.90;;;;;;5038102;28;20282;-49
2021/05/17 00:24:32;;;;;;;1.93;1.40;;;12.00;99.90;;;;;;5048188;28;20254;-49
2021/05/17 00:26:59;;;;;;;1.80;1.60;;;12.00;99.90;;;;;;5043865;28;20216;-49
2021/05/17 00:29:27;;;;;;;3.80;1.70;;;11.90;99.90;;;;;;5041992;28;20217;-49
2021/05/17 00:31:54;;;;;;;1.97;1.80;;;11.90;99.90;;;;;;5041325;28;20259;-49
2021/05/17 00:34:21;;;;;;;3.00;1.87;;;11.90;99.90;;;;;;5045637;28;20214;-48
2021/05/17 00:36:49;;;;;;;5.10;2.97;;;11.80;99.90;;;;;;5044658;28;20217;-49
2021/05/17 00:39:16;;;;;;;3.63;1.80;;;11.70;99.90;;;;;;5043583;28;20273;-49
2021/05/17 00:41:44;;;;;;;5.40;2.07;;;11.70;99.90;;;;;;5046437;28;20325;-49
2021/05/17 00:44:11;;;;;;;2.20;2.00;;;11.80;99.90;;;;;;5042381;28;21630;-49
2021/05/17 00:46:39;;;;;;;4.23;2.17;;;11.80;99.90;;;;;;5042283;28;20241;-49
2021/05/17 00:49:06;;;;;;;2.37;1.53;;;11.80;99.90;;;;;;5045470;28;20288;-49
2021/05/17 00:51:33;;;;;;;2.07;1.80;;;11.60;99.90;;;;;;5039808;28;20282;-49
2021/05/17 00:54:01;;;;;;;2.07;1.87;;;11.60;99.90;;;;;;5039831;28;20319;-49
2021/05/17 00:56:28;;;;;;;3.77;2.20;;;11.80;99.90;;;;;;5043029;28;20211;-49
2021/05/17 00:58:56;;;;;;;3.97;1.90;;;11.80;99.90;;;;;;5038434;28;21627;-49
2021/05/17 01:01:23;;;;;;;4.53;2.10;;;11.80;99.90;;;;;;5043385;28;20311;-49
2021/05/17 01:03:49;;;;;;;2.97;2.10;;;11.60;99.90;;;;;;5046906;28;20806;-49
2021/05/17 01:06:18;;;;;;;3.80;2.23;;;11.70;99.90;;;;;;5047260;28;20603;-49
2021/05/17 01:08:49;;;;;;;2.00;1.80;;;11.80;99.90;;;;;;5046662;28;20257;-49
2021/05/17 01:11:18;;;;;;;2.77;2.00;;;11.60;99.90;;;;;;5049726;28;20215;-49
2021/05/17 01:13:45;;;;;;;2.53;2.20;;;11.70;99.90;;;;;;5044738;28;20278;-48
2021/05/17 01:16:12;;;;;;;2.87;2.23;;;11.80;99.90;;;;;;5044379;28;20240;-49
2021/05/17 01:18:40;;;;;;;4.93;2.20;;;11.80;99.90;;;;;;5048121;28;20344;-49
2021/05/17 01:21:07;;;;;;;2.80;2.43;;;11.80;99.90;;;;;;5046914;28;20242;-49
2021/05/17 01:23:45;;;;;;;2.77;2.00;;;11.60;99.90;;;;;;5043334;28;20227;-49
2021/05/17 01:26:14;;;;;;;5.23;2.00;;;11.50;99.90;;;;;;5046935;28;20262;-49
2021/05/17 01:28:42;;;;;;;2.87;2.10;;;11.50;99.90;;;;;;5045109;28;20678;-49
2021/05/17 01:31:10;;;;;;;2.53;2.10;;;11.60;99.90;;;;;;5045030;28;20299;-49
2021/05/17 01:33:40;;;;;;;3.20;2.23;;;11.60;99.90;;;;;;5046331;28;20597;-49
2021/05/17 01:36:09;;;;;;;2.60;2.10;;;11.70;99.90;;;;;;5044681;28;20722;-49
2021/05/17 01:38:39;;;;;;;5.87;2.60;;;11.60;99.90;;;;;;5047973;28;20235;-49
2021/05/17 01:41:12;;;;;;;4.03;2.27;;;11.50;99.90;;;;;;5046872;28;20278;-48
2021/05/17 01:43:41;;;;;;;3.27;2.37;;;11.60;99.90;;;;;;5045471;28;20233;-49
2021/05/17 01:46:18;;;;;;;7.13;2.70;;;11.60;99.90;;;;;;5041976;28;20611;-49
2021/05/17 01:48:45;;;;;;;6.40;2.33;;;11.60;99.90;;;;;;5049379;28;20683;-49
2021/05/17 01:51:16;;;;;;;3.80;2.50;;;11.40;99.90;;;;;;5045774;28;20682;-49
2021/05/17 01:53:45;;;;;;;3.53;2.43;;;11.50;99.90;;;;;;5043119;28;20279;-49
2021/05/17 01:56:13;;;;;;;4.47;2.40;;;11.60;99.90;;;;;;5042752;28;20412;-50
2021/05/17 01:58:41;;;;;;;5.37;2.43;;;11.50;99.90;;;;;;5050140;28;20625;-50
2021/05/17 02:01:13;;;;;;;4.70;2.40;;;11.40;99.90;;;;;;5046633;28;20691;-49
2021/05/17 02:03:42;;;;;;;5.07;2.27;;;11.40;99.90;;;;;;5042545;28;20333;-49
2021/05/17 02:06:11;;;;;;;4.67;2.47;;;11.50;99.90;;;;;;5045578;28;20497;-48
2021/05/17 02:08:50;;;;;;;2.73;2.00;;;11.40;99.90;;;;;;5046592;28;20204;-50
2021/05/17 02:11:19;;;;;;;3.57;2.57;;;11.40;99.90;;;;;;5045506;28;20191;-48
2021/05/17 02:13:47;;;;;;;3.63;2.47;;;11.50;99.90;;;;;;5041627;28;20653;-50
2021/05/17 02:16:15;;;;;;;4.50;2.43;;;11.30;99.90;;;;;;5045987;28;20208;-49
2021/05/17 02:18:47;;;;;;;5.13;2.50;;;11.30;99.90;;;;;;5045026;28;20296;-49
2021/05/17 02:21:17;;;;;;;4.30;2.33;;;11.30;99.90;;;;;;5044315;28;20211;-49
2021/05/17 02:23:44;;;;;;;3.80;2.43;;;11.30;99.90;;;;;;5045312;28;20570;-50
2021/05/17 02:26:12;;;;;;;3.60;2.50;;;11.10;99.90;;;;;;5045742;28;21944;-49
2021/05/17 02:28:40;;;;;;;3.83;2.30;;;11.00;99.90;;;;;;5044507;28;20230;-49
2021/05/17 02:31:08;;;;;;;3.63;2.60;;;11.10;99.90;;;;;;5048680;28;20290;-50
2021/05/17 02:33:36;;;;;;;5.17;2.73;;;11.20;99.90;;;;;;5045866;28;20292;-49
2021/05/17 02:36:05;;;;;;;4.57;2.60;;;11.30;99.90;;;;;;5048515;28;20294;-49
2021/05/17 02:38:33;;;;;;;4.77;2.40;;;11.40;99.90;;;;;;5048144;28;20629;-49
2021/05/17 02:41:03;;;;;;;5.13;2.37;;;11.30;99.90;;;;;;5050521;28;20760;-49
2021/05/17 02:43:32;;;;;;;4.83;2.50;;;11.30;99.90;;;;;;5048435;28;20344;-48
2021/05/17 02:46:01;;;;;;;5.07;2.40;;;11.30;99.90;;;;;;5045964;28;20338;-49
2021/05/17 02:48:29;;;;;;;7.47;2.87;;;11.20;99.90;;;;;;5046803;28;20199;-49
2021/05/17 02:50:57;;;;;;;4.87;2.63;;;11.30;99.90;;;;;;5047049;28;20717;-49
2021/05/17 02:53:33;;;;;;;5.10;2.83;;;11.30;99.90;;;;;;5044299;28;20300;-50
2021/05/17 02:56:14;;;;;;;6.57;2.77;;;11.40;99.90;;;;;;5047732;28;20304;-49
2021/05/17 02:58:43;;;;;;;7.10;2.93;;;11.30;99.90;;;;;;5044488;28;20222;-49
2021/05/17 03:01:14;;;;;;;4.40;2.70;;;11.20;99.90;;;;;;5046613;28;20596;-49
2021/05/17 03:03:50;;;;;;;4.40;2.27;;;11.30;99.90;;;;;;5043363;28;20237;-49
2021/05/17 03:06:23;;;;;;;6.80;3.00;;;11.40;99.90;;;;;;5044301;28;20544;-49
2021/05/17 03:08:56;;;;;;;7.80;3.13;;;11.30;99.90;;;;;;5044427;28;20211;-49
2021/05/17 03:11:24;;;;;;;5.97;2.80;;;11.40;99.90;;;;;;5047617;28;20258;-49
2021/05/17 03:13:54;;;;;;;4.97;2.83;;;11.40;99.90;;;;;;5041306;28;20478;-49
2021/05/17 03:16:22;;;;;;;5.37;2.80;;;11.40;99.90;;;;;;5046689;28;20498;-49
2021/05/17 03:18:51;;;;;;;7.17;4.20;;;11.40;99.90;;;;;;5047242;28;20223;-49
2021/05/17 03:21:22;;;;;;;4.63;2.63;;;11.40;99.90;;;;;;5043430;28;20267;-48
2021/05/17 03:23:51;;;;;;;6.97;3.10;;;11.40;99.90;;;;;;5039445;28;20202;-49
2021/05/17 03:26:20;;;;;;;5.40;2.90;;;11.40;99.90;;;;;;5048478;28;20240;-49
2021/05/17 03:28:47;;;;;;;5.17;2.43;;;11.30;99.90;;;;;;5044162;28;20315;-49
2021/05/17 03:31:14;;;;;;;6.57;2.87;;;11.30;99.90;;;;;;5045420;28;20244;-49
2021/05/17 03:33:41;;;;;;;5.67;2.80;;;11.30;99.90;;;;;;5040268;28;20834;-49
2021/05/17 03:36:08;;;;;;;6.50;3.00;;;11.30;99.90;;;;;;5043903;28;20204;-49
2021/05/17 03:38:37;;;;;;;4.57;2.50;;;11.40;99.90;;;;;;5042789;28;20610;-49
2021/05/17 03:41:06;;;;;;;6.53;2.43;;;11.30;99.90;;;;;;5047013;28;20301;-50
2021/05/17 03:43:33;;;;;;;5.10;2.70;;;11.20;99.90;;;;;;5044982;28;20749;-49
2021/05/17 03:46:00;;;;;;;6.00;3.30;;;11.20;99.90;;;;;;5040168;28;20260;-49
2021/05/17 03:48:27;;;;;;;9.00;2.57;;;11.30;99.90;;;;;;5047947;28;20296;-49
2021/05/17 03:50:53;;;;;;;3.80;2.37;;;11.30;99.90;;;;;;5042938;28;20271;-49
2021/05/17 03:53:20;;;;;;;7.37;3.20;;;11.30;99.90;;;;;;5040384;28;20227;-49
2021/05/17 03:55:47;;;;;;;4.73;2.87;;;11.40;99.90;;;;;;5038606;28;20274;-50
2021/05/17 03:58:14;;;;;;;4.97;2.70;;;11.30;99.90;;;;;;5044133;28;20681;-49
2021/05/17 04:00:41;;;;;;;4.90;2.73;;;11.30;99.90;;;;;;5040439;28;20362;-49
2021/05/17 04:03:15;;;;;;;7.23;2.47;;;11.30;99.90;;;;;;5045690;28;20219;-49
2021/05/17 04:12:28;;;;;;;3.53;2.40;;;11.20;99.90;;;;;;5044182;28;20201;-49
2021/05/17 04:14:02;;;;;;;5.03;2.43;;;11.20;99.90;;;;;;5043033;28;20842;-49
2021/05/17 04:16:29;;;;;;;3.07;2.10;;;11.20;99.90;;;;;;5044359;28;20418;-49
2021/05/17 04:18:56;;;;;;;3.57;2.33;;;11.10;99.90;;;;;;5044806;28;20694;-49
2021/05/17 04:21:23;;;;;;;3.53;2.17;;;11.10;99.90;;;;;;5040484;28;20218;-49
2021/05/17 04:23:50;;;;;;;2.97;2.07;;;11.20;99.90;;;;;;5041637;28;20198;-50
2021/05/17 04:26:16;;;;;;;4.63;2.40;;;11.20;99.90;;;;;;5043785;28;20282;-50
2021/05/17 04:28:43;;;;;;;5.87;2.20;;;11.20;99.90;;;;;;5044665;28;20302;-48
2021/05/17 04:31:10;;;;;;;4.30;2.40;;;11.20;99.90;;;;;;5041411;28;20358;-48
2021/05/17 04:33:37;;;;;;;2.97;2.23;;;11.20;99.90;;;;;;5043209;28;20299;-48
2021/05/17 04:36:04;;;;;;;3.57;2.03;;;11.30;99.90;;;;;;5043137;28;20289;-48
2021/05/17 04:38:31;;;;;;;4.80;2.10;;;11.20;99.90;;;;;;5043280;28;20262;-48
2021/05/17 04:40:58;;;;;;;3.57;2.07;;;11.30;99.90;;;;;;5045360;28;20294;-48
2021/05/17 04:43:25;;;;;;;3.60;2.10;;;11.40;99.90;;;;;;5043892;28;20685;-48
2021/05/17 04:45:51;;;;;;;4.70;2.03;;;11.40;99.90;;;;;;5039874;28;20295;-48
2021/05/17 04:48:18;;;;;;;4.80;2.47;;;11.20;99.90;;;;;;5043813;28;20189;-48
2021/05/17 04:50:46;;;;;;;2.87;2.37;;;11.30;99.90;;;;;;5043104;28;20633;-48
2021/05/17 04:53:13;;;;;;;5.70;2.33;;;11.40;99.90;;;;;;5041333;28;20286;-48
2021/05/17 04:55:40;;;;;;;8.80;2.80;;;11.30;99.90;;;;;;5046626;28;20278;-48
2021/05/17 04:58:08;;;;;;;4.80;2.00;;;11.30;99.90;;;;;;5044028;28;20196;-48
2021/05/17 05:00:36;;;;;;;6.03;2.13;;;11.30;99.90;;;;;;5042738;28;20245;-47
2021/05/17 05:03:02;;;;;;;5.20;2.37;;;11.30;99.90;;;;;;5037483;28;20384;-48
2021/05/17 05:05:29;;;;;;;3.00;2.50;;;11.20;99.90;;;;;;5046062;28;20227;-49
2021/05/17 05:07:56;;;;;;;3.50;2.23;;;11.30;99.90;;;;;;5046185;28;20204;-48
2021/05/17 05:10:23;;;;;;;4.33;2.10;;;11.30;99.90;;;;;;5042987;28;20307;-49
2021/05/17 05:12:50;;;;;;;2.37;2.07;;;11.40;99.90;;;;;;5040702;28;20196;-49
2021/05/17 05:15:16;;;;;;;3.70;2.03;;;11.50;99.90;;;;;;5042509;28;20220;-47
2021/05/17 05:17:43;;;;;;;5.80;2.33;;;11.40;99.90;;;;;;5040614;28;20253;-47
2021/05/17 05:20:10;;;;;;;5.80;2.27;;;11.30;99.90;;;;;;5041961;28;20297;-48
2021/05/17 05:22:37;;;;;;;3.97;2.13;;;11.20;99.90;;;;;;5041577;28;20202;-48
2021/05/17 05:25:06;;;;;;;5.43;2.43;;;11.30;99.90;;;;;;5042418;28;20769;-48
2021/05/17 05:27:45;;;;;;;4.63;2.40;;;11.40;99.90;;;;;;5044335;28;20234;-47
2021/05/17 05:35:16;;;;;;;2.40;2.00;;;11.30;99.90;;;;;;5039137;28;20271;-49
2021/05/17 05:37:43;;;;;;;7.00;2.43;;;11.40;99.90;;;;;;5042726;28;20210;-48
2021/05/17 05:40:11;;;;;;;5.57;2.10;;;11.50;99.90;;;;;;5040736;28;20197;-48
2021/05/17 05:42:38;;;;;;;6.03;2.57;;;11.50;99.90;;;;;;5041273;28;20300;-48
2021/05/17 05:45:10;;;;;;;5.93;2.40;;;11.40;99.90;;;;;;5038656;28;20256;-49
2021/05/17 05:47:36;;;;;;;4.13;2.20;;;11.40;99.90;;;;;;5044240;28;20206;-49
2021/05/17 05:50:04;;;;;;;3.87;2.20;;;11.50;99.90;;;;;;5044311;28;20239;-49
2021/05/17 05:52:30;;;;;;;7.03;3.23;;;11.40;99.90;;;;;;5041934;28;20877;-48
2021/05/17 05:55:03;;;;;;;4.20;2.60;;;11.40;99.90;;;;;;5041689;28;20332;-48
2021/05/17 05:57:37;;;;;;;5.27;2.60;;;11.50;99.90;;;;;;5041306;28;20264;-48
2021/05/17 06:00:06;;;;;;;5.23;2.40;;;11.60;99.90;;;;;;5041715;28;21769;-49
2021/05/17 06:02:33;;;;;;;5.77;2.30;;;11.50;99.90;;;;;;5043895;28;20229;-49
2021/05/17 06:05:00;;;;;;;6.27;2.43;;;11.40;99.90;;;;;;5044663;28;20211;-48
2021/05/17 06:07:27;;;;;;;6.70;2.10;;;11.50;99.90;;;;;;5046471;28;20243;-48
2021/05/17 06:09:54;;;;;;;7.23;2.50;;;11.60;99.90;;;;;;5048769;28;20194;-48
2021/05/17 06:12:22;;;;;;;6.10;1.93;;;11.70;99.90;;;;;;5049116;28;20824;-48
2021/05/17 06:14:55;;;;;;;4.73;2.47;;;11.70;99.90;;;;;;5049547;28;20210;-48
2021/05/17 06:17:22;;;;;;;7.23;2.33;;;11.70;99.90;;;;;;5047883;28;20258;-49
2021/05/17 06:19:49;;;;;;;6.13;2.30;;;11.70;99.90;;;;;;5053037;28;20257;-49
2021/05/17 06:22:16;;;;;;;3.23;2.20;;;11.70;99.90;;;;;;5044980;28;20308;-48
2021/05/17 06:24:43;;;;;;;9.10;3.17;;;11.80;99.90;;;;;;5051424;28;20261;-48
2021/05/17 06:27:11;;;;;;;7.57;2.20;;;11.90;99.90;;;;;;5053976;28;20747;-49
2021/05/17 06:29:38;;;;;;;6.67;2.20;;;11.90;99.90;;;;;;5056828;28;20221;-49
2021/05/17 06:32:07;;;;;;;4.67;2.13;;;11.70;99.90;;;;;;5055183;28;20241;-49
2021/05/17 06:34:39;;;;;;;5.13;2.23;;;11.80;99.90;;;;;;5051363;28;20259;-49
2021/05/17 06:37:06;;;;;;;6.93;3.00;;;11.70;99.90;;;;;;5053299;28;20569;-49
2021/05/17 06:39:34;;;;;;;3.20;2.00;;;11.80;99.90;;;;;;5054703;28;20214;-49
2021/05/17 06:42:01;;;;;;;3.90;2.23;;;11.80;99.90;;;;;;5051454;28;20213;-49
2021/05/17 06:44:28;;;;;;;5.83;2.33;;;11.70;99.90;;;;;;5049833;28;20201;-49
2021/05/17 06:46:55;;;;;;;4.43;2.23;;;11.80;99.90;;;;;;5049770;28;20210;-50
2021/05/17 06:49:22;;;;;;;6.27;2.93;;;11.90;99.90;;;;;;5051687;28;20297;-50
2021/05/17 06:51:49;;;;;;;8.43;2.23;;;12.00;99.90;;;;;;5049744;28;20230;-50
2021/05/17 06:54:19;;;;;;;3.33;2.30;;;12.00;99.90;;;;;;5051372;28;20225;-50
2021/05/17 06:56:55;;;;;;;4.13;2.43;;;11.90;99.90;;;;;;5046378;28;20270;-49
2021/05/17 06:59:23;;;;;;;5.07;2.27;;;12.00;99.90;;;;;;5053923;28;20299;-50
2021/05/17 07:01:53;;;;;;;4.37;2.30;;;12.00;99.90;;;;;;5050698;28;20341;-49
2021/05/17 07:04:20;;;;;;;3.87;2.17;;;12.00;99.90;;;;;;5056042;28;20205;-49
2021/05/17 07:06:57;;;;;;;4.37;1.87;;;12.00;99.90;;;;;;5052991;28;20195;-48
2021/05/17 07:12:12;;;;;;;6.07;2.33;;;11.90;99.90;;;;;;5048269;28;20196;-49
2021/05/17 07:14:39;;;;;;;3.47;1.80;;;11.90;99.90;;;;;;5051237;28;20741;-49
2021/05/17 07:17:07;;;;;;;4.70;2.20;;;11.90;99.90;;;;;;5035866;28;20200;-49
2021/05/17 07:19:34;;;;;;;3.80;1.93;;;12.00;99.90;;;;;;5050826;28;20327;-49
2021/05/17 07:24:47;;;;;;;4.80;2.10;;;12.10;99.90;;;;;;5049568;28;20200;-49
2021/05/17 07:27:14;;;;;;;9.00;2.60;;;12.10;99.90;;;;;;5050336;28;20227;-49
2021/05/17 07:29:41;;;;;;;3.73;2.10;;;12.20;99.90;;;;;;5050912;28;20236;-50
2021/05/17 07:32:10;;;;;;;2.37;1.87;;;12.10;99.90;;;;;;5049886;28;20219;-50
2021/05/17 07:34:37;;;;;;;7.97;2.60;;;12.20;99.90;;;;;;5053351;28;20204;-50
2021/05/17 07:37:05;;;;;;;2.73;2.10;;;12.20;99.90;;;;;;5050532;28;20216;-50
2021/05/17 07:39:33;;;;;;;2.83;1.90;;;12.30;99.90;;;;;;5051967;28;20257;-49
2021/05/17 07:42:01;;;;;;;3.93;2.07;;;12.20;99.90;;;;;;5046280;28;20216;-50
2021/05/17 07:44:30;;;;;;;4.53;1.93;;;12.10;99.90;;;;;;5050970;28;20228;-50
2021/05/17 07:46:59;;;;;;;5.83;2.30;;;11.90;99.90;;;;;;5049733;28;20274;-49
2021/05/17 07:52:04;;;;;;;7.17;2.10;;;12.10;99.90;;;;;;5048186;28;20232;-49
2021/05/17 07:54:32;;;;;;;8.50;2.83;;;12.10;99.90;;;;;;5044977;28;20227;-50
2021/05/17 07:56:59;;;;;;;3.47;2.50;;;12.20;99.90;;;;;;5045141;28;20363;-49
2021/05/17 07:59:29;;;;;;;6.67;3.13;;;12.20;99.90;;;;;;5051595;28;20228;-49
2021/05/17 08:01:57;;;;;;;3.53;2.13;;;12.40;99.90;;;;;;5046278;28;20220;-48
2021/05/17 08:04:24;;;;;;;6.57;2.60;;;12.50;99.90;;;;;;5044746;28;20230;-49
2021/05/17 08:06:51;;;;;;;5.80;2.60;;;12.40;99.90;;;;;;5045765;28;20991;-49
2021/05/17 08:09:19;;;;;;;6.77;2.83;;;12.40;99.90;;;;;;5047266;28;20617;-49
2021/05/17 08:11:46;;;;;;;4.43;2.20;;;12.50;99.90;;;;;;5045107;28;21426;-49
2021/05/17 08:14:15;;;;;;;4.73;3.20;;;12.60;99.90;;;;;;5043210;28;20277;-49
2021/05/17 08:16:42;;;;;;;7.17;2.70;;;12.70;99.90;;;;;;5042710;28;20713;-49
2021/05/17 08:19:09;;;;;;;9.33;2.83;;;12.70;99.90;;;;;;5047539;28;20280;-49
2021/05/17 08:21:36;;;;;;;4.37;2.10;;;12.90;99.90;;;;;;5045387;28;20215;-50
2021/05/17 08:24:04;;;;;;;3.20;2.20;;;13.20;99.90;;;;;;5042548;28;20232;-49
2021/05/17 08:26:30;;;;;;;5.33;2.30;;;13.30;99.90;;;;;;5040091;28;20315;-49
2021/05/17 08:28:57;;;;;;;3.83;2.40;;;13.30;99.90;;;;;;5041175;28;20235;-50
2021/05/17 08:31:25;;;;;;;2.90;2.00;;;13.10;99.90;;;;;;5045775;28;20717;-55
2021/05/17 08:33:52;;;;;;;5.00;2.20;;;13.20;99.90;;;;;;5040454;28;20222;-55
2021/05/17 08:36:19;;;;;;;2.17;1.97;;;13.40;99.90;;;;;;5040672;28;21007;-57
2021/05/17 08:38:46;;;;;;;4.20;1.77;;;13.50;99.90;;;;;;5040928;28;20204;-58
2021/05/17 08:41:13;;;;;;;4.77;1.97;;;13.30;99.90;;;;;;5043801;28;20246;-55
2021/05/17 08:43:41;;;;;;;2.80;1.83;;;13.50;99.90;;;;;;5042099;28;20608;-56
2021/05/17 08:46:10;;;;;;;2.17;1.70;;;13.50;99.90;;;;;;5044810;28;20310;-55
2021/05/17 08:48:47;;;;;;;2.23;1.60;;;13.50;99.90;;;;;;5049345;28;20253;-56
2021/05/17 08:51:33;;;;;;;1.83;1.63;;;13.30;99.90;;;;;;5046009;28;20304;-55
2021/05/17 08:54:05;;;;;;;2.60;1.70;;;13.10;99.90;;;;;;5045871;28;20213;-56
2021/05/17 08:56:33;;;;;;;2.10;1.80;;;13.10;99.90;;;;;;5043759;28;20249;-56
2021/05/17 08:59:03;;;;;;;2.67;1.70;;;12.80;99.90;;;;;;5043996;28;20350;-56
2021/05/17 09:01:30;;;;;;;5.97;2.10;;;12.80;99.90;;;;;;5044968;28;20309;-48
2021/05/17 09:04:01;;;;;;;4.20;2.30;;;12.70;99.90;;;;;;5043255;28;20284;-49
2021/05/17 09:06:39;;;;;;;4.70;2.57;;;13.00;99.90;;;;;;5053646;28;20272;-49
2021/05/17 09:09:21;;;;;;;2.93;2.30;;;13.00;99.90;;;;;;5052084;28;20202;-50
2021/05/17 09:11:54;;;;;;;3.43;2.40;;;13.40;99.90;;;;;;5048774;28;20203;-49
2021/05/17 09:14:22;;;;;;;2.37;1.83;;;13.30;99.90;;;;;;5047765;28;20269;-49
2021/05/17 09:16:52;;;;;;;5.73;1.67;;;13.20;99.90;;;;;;5048284;28;20253;-49
2021/05/17 09:19:20;;;;;;;3.23;1.80;;;12.80;99.90;;;;;;5046695;28;20291;-49
2021/05/17 09:22:06;;;;;;;4.47;2.03;;;12.40;99.90;;;;;;5047271;28;20284;-49
2021/05/17 09:24:34;;;;;;;3.50;1.90;;;12.30;99.90;;;;;;5052631;28;20312;-49
2021/05/17 09:27:01;;;;;;;3.30;1.87;;;12.20;99.90;;;;;;5047533;28;20254;-50
2021/05/17 09:29:35;;;;;;;2.23;1.97;;;12.20;99.90;;;;;;5048165;28;20256;-49
2021/05/17 09:32:18;;;;;;;4.33;2.70;;;12.30;99.90;;;;;;5047732;28;20254;-48
2021/05/17 09:34:58;;;;;;;4.10;2.20;;;12.50;99.90;;;;;;5050701;28;20552;-49
2021/05/17 09:37:26;;;;;;;3.83;1.90;;;12.50;99.90;;;;;;5047975;28;20218;-49
2021/05/17 09:39:54;;;;;;;5.13;2.10;;;12.80;99.90;;;;;;5051442;28;20220;-49
2021/05/17 09:42:24;;;;;;;3.93;2.40;;;12.80;99.90;;;;;;5052278;28;20215;-49
2021/05/17 09:44:53;;;;;;;3.80;2.63;;;12.80;99.90;;;;;;5053495;28;20267;-50
2021/05/17 09:47:23;;;;;;;5.17;2.53;;;13.30;99.90;;;;;;5050583;28;20307;-49
2021/05/17 09:49:52;;;;;;;3.93;2.47;;;13.70;99.90;;;;;;5055081;28;20309;-50
2021/05/17 09:52:20;;;;;;;5.00;2.27;;;13.90;99.90;;;;;;5051204;28;20214;-49
2021/05/17 09:54:56;;;;;;;2.87;2.40;;;14.20;99.90;;;;;;5052952;28;20207;-49
2021/05/17 09:57:36;;;;;;;3.90;2.37;;;14.10;99.90;;;;;;5051980;28;20248;-49
2021/05/17 10:00:13;;;;;;;3.60;1.90;;;14.00;99.90;;;;;;5053080;28;20250;-50
2021/05/17 10:02:50;;;;;;;2.33;2.00;;;14.30;99.90;;;;;;5053224;28;20630;-50
2021/05/17 10:05:18;;;;;;;5.80;2.50;;;14.90;99.90;;;;;;5052888;28;20202;-50
2021/05/17 10:08:06;;;;;;;3.77;2.30;;;14.60;99.90;;;;;;5051851;28;20378;-49
2021/05/17 10:10:43;;;;;;;3.57;2.13;;;14.60;99.90;;;;;;5053617;28;20687;-50
2021/05/17 10:13:10;;;;;;;2.33;2.13;;;14.20;99.90;;;;;;5050483;28;20206;-50
2021/05/17 10:15:38;;;;;;;2.27;1.93;;;14.10;99.90;;;;;;5049646;28;20231;-50
2021/05/17 10:18:09;;;;;;;4.10;1.80;;;14.10;99.90;;;;;;5050928;28;20874;-50
2021/05/17 10:20:36;;;;;;;2.83;1.70;;;14.00;99.90;;;;;;5051088;28;20266;-50
2021/05/17 10:23:03;;;;;;;2.43;2.00;;;14.10;99.90;;;;;;5051198;28;20227;-50
2021/05/17 10:25:32;;;;;;;2.50;1.33;;;14.00;99.90;;;;;;5056051;28;20728;-49
2021/05/17 10:28:08;;;;;;;1.63;0.73;;;13.80;99.90;;;;;;5063805;28;20297;-50
2021/05/17 10:30:37;;;;;;;0.83;0.60;;;13.60;99.90;;;;;;5045343;28;20199;-50
2021/05/17 10:33:06;;;;;;;1.60;0.90;;;13.50;99.90;;;;;;5051646;28;20214;-49
2021/05/17 10:35:48;;;;;;;1.20;0.53;;;13.40;99.90;;;;;;5050795;28;20231;-50
2021/05/17 10:46:54;;;;;;;1.90;1.53;;;13.60;99.90;;;;;;5050317;28;20199;-50
2021/05/17 10:49:35;;;;;;;1.60;1.50;;;13.70;99.90;;;;;;5051715;28;20251;-48
2021/05/17 10:52:08;;;;;;;1.90;1.50;;;13.80;99.90;;;;;;5049600;28;20300;-51
2021/05/17 10:54:40;;;;;;;1.70;1.53;;;13.80;99.90;;;;;;5054017;28;20213;-48
2021/05/17 10:57:21;;;;;;;2.70;2.20;;;13.80;99.90;;;;;;5049762;28;20360;-48
2021/05/17 11:02:38;;;;;;;2.87;2.63;;;13.90;99.90;;;;;;5046696;28;20310;-48
2021/05/17 11:05:20;;;;;;;2.90;2.57;;;14.50;99.90;;;;;;5052247;28;20192;-48
2021/05/17 11:07:52;;;;;;;3.00;2.30;;;14.80;99.90;;;;;;5048648;28;20211;-51
2021/05/17 11:10:36;;;;;;;3.03;2.73;;;15.20;99.90;;;;;;5049787;28;20207;-48
2021/05/17 11:13:20;;;;;;;2.67;2.47;;;15.00;99.90;;;;;;5049551;28;20571;-48
2021/05/17 11:15:59;;;;;;;3.13;2.80;;;15.10;99.90;;;;;;5048260;28;20647;-49
2021/05/17 11:18:48;;;;;;;2.90;2.23;;;14.70;99.90;;;;;;5048985;28;20222;-49
2021/05/17 11:21:22;;;;;;;3.30;2.70;;;14.70;99.90;;;;;;5049294;28;20203;-49
2021/05/17 11:23:52;;;;;;;3.47;2.80;;;14.60;99.90;;;;;;5048988;28;20325;-51
2021/05/17 11:26:22;;;;;;;2.50;2.30;;;14.70;99.90;;;;;;5049242;28;20620;-49
2021/05/17 11:28:49;;;;;;;3.47;2.43;;;14.50;99.90;;;;;;5051013;28;20755;-49
2021/05/17 11:34:05;;;;;;;2.97;2.67;;;14.80;99.90;;;;;;5051881;28;20256;-48
2021/05/17 11:36:52;;;;;;;3.30;3.00;;;15.20;99.90;;;;;;5050083;28;20207;-48
2021/05/17 11:39:22;;;;;;;2.67;2.47;;;15.30;99.90;;;;;;5047534;28;20192;-49
2021/05/17 11:41:59;;;;;;;3.70;2.40;;;15.30;99.90;;;;;;5038028;28;20298;-48
2021/05/17 11:44:29;;;;;;;5.17;2.87;;;15.50;99.90;;;;;;5048802;28;20203;-49
2021/05/17 11:46:57;;;;;;;4.73;2.80;;;16.20;99.90;;;;;;5048704;28;20647;-49
2021/05/17 11:49:29;;;;;;;2.97;2.43;;;15.80;99.90;;;;;;5052932;28;20614;-51
2021/05/17 11:51:57;;;;;;;3.47;2.50;;;15.60;99.90;;;;;;5046826;28;20238;-48
2021/05/17 11:54:33;;;;;;;4.40;3.00;;;15.30;99.90;;;;;;5053418;28;20243;-49
2021/05/17 11:57:01;;;;;;;3.07;2.73;;;15.10;99.90;;;;;;5047259;28;20239;-49
2021/05/17 11:59:32;;;;;;;3.83;3.40;;;14.90;99.90;;;;;;5047119;28;20596;-49
2021/05/17 12:02:05;;;;;;;5.53;3.93;;;14.50;99.90;;;;;;5048854;28;20235;-51
2021/05/17 12:04:36;;;;;;;4.77;3.97;;;14.40;99.90;;;;;;5051552;28;20257;-49
2021/05/17 12:07:04;;;;;;;2.93;2.00;;;14.60;99.90;;;;;;5048589;28;20232;-49
2021/05/17 12:09:42;;;;;;;3.00;1.47;;;14.40;99.90;;;;;;5052653;28;20243;-49
2021/05/17 12:12:14;;;;;;;1.83;1.40;;;14.20;99.90;;;;;;5046340;28;20301;-49
2021/05/17 12:14:49;;;;;;;1.37;1.17;;;14.20;99.90;;;;;;5050859;28;20206;-49
2021/05/17 12:17:27;;;;;;;1.30;1.20;;;14.20;99.90;;;;;;5049679;28;20299;-49
2021/05/17 12:19:56;;;;;;;1.50;1.40;;;14.30;99.90;;;;;;5044407;28;20632;-49
2021/05/17 12:25:12;;;;;;;3.53;2.00;;;14.40;99.90;;;;;;5048090;28;20203;-49
2021/05/17 12:27:39;;;;;;;3.43;2.63;;;14.50;99.90;;;;;;5045794;28;20264;-49
2021/05/17 12:30:14;;;;;;;5.53;2.40;;;14.30;99.90;;;;;;5040490;28;20227;-49
2021/05/17 12:33:01;;;;;;;4.53;2.53;;;14.30;99.90;;;;;;5043670;28;20298;-49
2021/05/17 12:35:39;;;;;;;3.93;3.10;;;14.40;99.90;;;;;;5044373;28;20601;-49
2021/05/17 12:38:18;;;;;;;3.73;2.60;;;14.40;99.90;;;;;;5045638;28;20638;-49
2021/05/17 12:40:47;;;;;;;3.70;2.47;;;14.50;99.90;;;;;;5046059;28;20551;-50
2021/05/17 12:43:34;;;;;;;3.33;2.30;;;14.40;99.90;;;;;;5044511;28;20267;-49
2021/05/17 12:46:03;;;;;;;3.13;2.33;;;14.40;99.90;;;;;;5044922;28;20208;-50
2021/05/17 12:48:44;;;;;;;2.07;1.87;;;14.20;99.90;;;;;;5038797;28;20200;-50
2021/05/17 12:51:26;;;;;;;4.37;2.30;;;14.20;99.90;;;;;;5045725;28;20210;-49
2021/05/17 12:54:08;;;;;;;2.97;2.67;;;14.20;99.90;;;;;;5046244;28;20203;-49
2021/05/17 12:56:35;;;;;;;3.20;2.90;;;14.20;99.90;;;;;;5055011;28;20510;-50
2021/05/17 12:59:14;;;;;;;2.77;2.57;;;14.10;99.90;;;;;;5047056;28;20784;-49
2021/05/17 13:01:42;;;;;;;3.63;3.20;;;14.10;99.90;;;;;;5044087;28;20210;-49
2021/05/17 13:04:09;;;;;;;3.73;2.80;;;14.30;99.90;;;;;;5047389;28;20243;-51
2021/05/17 13:06:36;;;;;;;3.90;2.50;;;14.20;99.90;;;;;;5038370;28;20244;-48
2021/05/17 13:09:07;;;;;;;3.00;2.70;;;14.30;99.90;;;;;;5052384;28;20248;-48
2021/05/17 13:11:43;;;;;;;5.10;3.10;;;14.40;99.90;;;;;;5048378;28;20692;-49
2021/05/17 13:14:12;;;;;;;4.30;2.97;;;14.40;99.90;;;;;;5051928;28;20207;-49
2021/05/17 13:16:57;;;;;;;3.83;2.93;;;14.50;99.90;;;;;;5044733;28;20612;-49
2021/05/17 13:19:50;;;;;;;4.97;3.57;;;14.70;99.90;;;;;;5051252;28;20253;-49
2021/05/17 13:31:01;;;;;;;5.80;3.27;;;14.80;99.90;;;;;;5044890;28;20917;-48
2021/05/17 13:33:43;;;;;;;5.30;2.90;;;14.70;99.90;;;;;;5047619;28;20199;-48
2021/05/17 13:36:16;;;;;;;4.97;2.90;;;14.70;99.90;;;;;;5048840;28;20192;-48
2021/05/17 13:38:46;;;;;;;3.73;3.30;;;14.80;99.90;;;;;;5047209;28;20219;-48
2021/05/17 13:41:13;;;;;;;5.33;3.50;;;14.70;99.90;;;;;;5062049;28;20288;-48
2021/05/17 13:43:45;;;;;;;8.17;3.80;;;14.60;99.90;;;;;;5041251;28;20215;-48
2021/05/17 13:46:13;;;;;;;6.33;3.90;;;14.50;99.90;;;;;;5048341;28;20205;-48